Sadan Bayraktar — TCRB — position and weather

sailwx.info

Track history (hours):
 
Tides and Currents Weather Stations Pressure Air Temp Water Temp Dewpoint Dewpoint Depression Visibility Wind Speed Wind Dir Waves Ship Positions

Sadan Bayraktar

Last reported at 2015-Mar-03 02:29 UTC. Time now 2015-Mar-04 15:17 UTC.
Position N 46°36' E 031°48'.

Length 116 m; draft 7.7 m.

Type: Cargo ship. MMSI: 271000653.

Date/timePositionNaut miles runAvg speedWind from/ knotsBaromVisibWave heightAir tempDewpointWater temp
2015-Mar-03 02:29N 46°36' E 031°48'9 9.7
2015-Mar-03 01:33N 46°43' E 031°56'9 9.2
2015-Mar-03 00:33N 46°52' E 031°58'5 4.7
2015-Mar-02 23:32N 46°56' E 032°01'0 0.0
2015-Mar-02 22:32N 46°56' E 032°01'0 0.0
2015-Mar-02 21:32N 46°56' E 032°01'0 0.0
2015-Mar-02 20:32N 46°56' E 032°01'0 0.0
2015-Mar-02 19:32N 46°56' E 032°01'0 0.0
2015-Mar-02 18:32N 46°56' E 032°01'0 0.0
2015-Mar-02 17:32N 46°56' E 032°01'0 0.0
2015-Mar-02 16:32N 46°56' E 032°01'0 0.0
2015-Mar-02 15:32N 46°56' E 032°01'0 0.0
2015-Mar-02 14:32N 46°56' E 032°01'0 0.0
2015-Mar-02 13:32N 46°56' E 032°01'0 0.0
2015-Mar-02 12:32N 46°56' E 032°01'0 0.0
2015-Mar-02 11:32N 46°56' E 032°01'0 0.0
2015-Mar-02 10:32N 46°56' E 032°01'0 0.0
2015-Mar-02 09:32N 46°56' E 032°01'0 0.0
2015-Mar-02 08:33N 46°56' E 032°01'0 0.0
2015-Mar-02 07:33N 46°56' E 032°01'0 0.0
2015-Mar-02 06:33N 46°56' E 032°01'0 0.0
2015-Mar-02 05:33N 46°56' E 032°01'0 0.0
2015-Mar-02 04:33N 46°56' E 032°01'0 0.0
2015-Mar-02 03:33N 46°56' E 032°01'0 0.0
2015-Mar-02 02:31N 46°56' E 032°01'0 0.0
2015-Mar-02 01:31N 46°56' E 032°01'0 0.0
2015-Mar-02 00:31N 46°56' E 032°01'0 0.0
2015-Mar-01 23:31N 46°56' E 032°01'0 0.0
2015-Mar-01 22:31N 46°56' E 032°01'0 0.0
2015-Mar-01 21:32N 46°56' E 032°01'0 0.0
2015-Mar-01 20:32N 46°56' E 032°01'0 0.0
2015-Mar-01 19:32N 46°56' E 032°01'0 0.0
2015-Mar-01 18:32N 46°56' E 032°01'0 0.0
2015-Mar-01 17:32N 46°56' E 032°01'0 0.0
2015-Mar-01 16:32N 46°56' E 032°01'0 0.0
2015-Mar-01 15:29N 46°56' E 032°01'0 0.0
2015-Mar-01 14:32N 46°56' E 032°01'0 0.0
2015-Mar-01 13:29N 46°56' E 032°01'0 0.0
2015-Mar-01 12:32N 46°56' E 032°01'0 0.0
2015-Mar-01 11:32N 46°56' E 032°01'0 0.0
2015-Mar-01 10:32N 46°56' E 032°01'0 0.0
2015-Mar-01 09:32N 46°56' E 032°01'0 0.0
2015-Mar-01 08:32N 46°56' E 032°01'0 0.0
2015-Mar-01 07:32N 46°56' E 032°01'1 0.8
2015-Mar-01 06:34N 46°57' E 032°00'0 0.2
2015-Mar-01 05:33N 46°56' E 031°60'0 0.1
2015-Mar-01 04:32N 46°56' E 031°60'0 0.0
2015-Mar-01 03:32N 46°56' E 031°60'0 0.0
2015-Mar-01 02:32N 46°56' E 031°60'0 0.0
2015-Mar-01 01:32N 46°56' E 031°60'0 0.0
2015-Mar-01 00:32N 46°56' E 031°60'0 0.0
2015-Feb-28 23:29N 46°56' E 031°60'0 0.0
2015-Feb-28 22:32N 46°56' E 031°60'0 0.0
2015-Feb-28 21:32N 46°56' E 031°60'0 0.0
2015-Feb-28 20:32N 46°56' E 031°60'0 0.0
2015-Feb-28 19:32N 46°56' E 031°60'0 0.0
2015-Feb-28 18:32N 46°56' E 031°60'0 0.0
2015-Feb-28 17:32N 46°56' E 031°60'0 0.0
2015-Feb-28 16:32N 46°56' E 031°60'0 0.0
2015-Feb-28 15:32N 46°56' E 031°60'0 0.0
2015-Feb-28 14:32N 46°56' E 031°60'0 0.0
2015-Feb-28 13:32N 46°56' E 031°60'0 0.0
2015-Feb-28 12:32N 46°56' E 031°60'0 0.0
2015-Feb-28 11:29N 46°56' E 031°60'0 0.0
2015-Feb-28 10:32N 46°56' E 031°60'0 0.0
2015-Feb-28 09:32N 46°56' E 031°60'0 0.0
2015-Feb-28 08:32N 46°56' E 031°60'0 0.0
2015-Feb-28 07:32N 46°56' E 031°60'0 0.0
2015-Feb-28 06:32N 46°56' E 031°60'0 0.0
2015-Feb-28 05:32N 46°56' E 031°60'0 0.0
2015-Feb-28 04:32N 46°56' E 031°60'0 0.0
2015-Feb-28 03:32N 46°56' E 031°60'0 0.0
2015-Feb-28 02:32N 46°56' E 031°60'0 0.0
2015-Feb-28 01:32N 46°56' E 031°60'0 0.0
2015-Feb-28 00:32N 46°56' E 031°60'0 0.0
2015-Feb-27 23:32N 46°56' E 031°60'0 0.0
2015-Feb-27 22:32N 46°56' E 031°60'0 0.0
2015-Feb-27 21:32N 46°56' E 031°60'0 0.1
2015-Feb-27 20:32N 46°56' E 031°60'0 0.0
2015-Feb-27 19:32N 46°56' E 031°60'0 0.1
2015-Feb-27 18:32N 46°56' E 031°60'5 5.0
2015-Feb-27 17:33N 46°52' E 031°58'1111.1
2015-Feb-27 16:33N 46°41' E 031°56'1211.8
2015-Feb-27 15:31N 46°36' E 031°40'  
2015-Feb-24 13:25N 41°18' E 029°06'17 9.4
2015-Feb-24 11:33N 41°01' E 028°60'6 5.9
2015-Feb-24 10:31N 40°56' E 028°55'2 1.7
2015-Feb-24 09:22N 40°57' E 028°54'0 0.0
2015-Feb-24 07:22N 40°57' E 028°54'0 0.0
2015-Feb-24 06:28N 40°57' E 028°54'0 0.0
2015-Feb-24 05:22N 40°57' E 028°54'0 0.0
2015-Feb-24 04:28N 40°57' E 028°54'0 0.0
2015-Feb-24 03:22N 40°57' E 028°54'0 0.0
2015-Feb-24 02:28N 40°57' E 028°54'0 0.0
2015-Feb-24 01:10N 40°57' E 028°54'0 0.0
2015-Feb-24 00:22N 40°57' E 028°54'0 0.0
2015-Feb-23 23:28N 40°57' E 028°54'0 0.0
2015-Feb-23 22:10N 40°57' E 028°54'0 0.0
2015-Feb-23 21:04N 40°57' E 028°54'0 0.0
2015-Feb-23 19:30N 40°57' E 028°54'0 0.0
2015-Feb-23 18:18N 40°57' E 028°54'0 0.0
2015-Feb-23 17:30N 40°57' E 028°54'0 0.0
2015-Feb-23 16:24N 40°57' E 028°54'0 0.0
2015-Feb-23 14:24N 40°57' E 028°54'0 0.0
2015-Feb-23 13:12N 40°57' E 028°54'0 0.0
2015-Feb-23 11:30N 40°57' E 028°54'0 0.0
2015-Feb-23 08:24N 40°57' E 028°54'0 0.0
2015-Feb-23 07:24N 40°57' E 028°54'  
Track history (hours):
 
Tides and Currents Weather Stations Pressure Air Temp Water Temp Dewpoint Dewpoint Depression Visibility Wind Speed Wind Dir Waves Ship Positions

Sadan Bayraktar

Last reported at 2015-Mar-03 02:29 UTC. Time now 2015-Mar-04 15:17 UTC.
Position N 46°36' E 031°48'.

Length 116 m; draft 7.7 m.

Type: Cargo ship. MMSI: 271000653.

Date/timePositionNaut miles runAvg speedWind from/ knotsBaromVisibWave heightAir tempDewpointWater temp
2015-Mar-03 02:29N 46°36' E 031°48'9 9.7
2015-Mar-03 01:33N 46°43' E 031°56'9 9.2
2015-Mar-03 00:33N 46°52' E 031°58'5 4.7
2015-Mar-02 23:32N 46°56' E 032°01'0 0.0
2015-Mar-02 22:32N 46°56' E 032°01'0 0.0
2015-Mar-02 21:32N 46°56' E 032°01'0 0.0
2015-Mar-02 20:32N 46°56' E 032°01'0 0.0
2015-Mar-02 19:32N 46°56' E 032°01'0 0.0
2015-Mar-02 18:32N 46°56' E 032°01'0 0.0
2015-Mar-02 17:32N 46°56' E 032°01'0 0.0
2015-Mar-02 16:32N 46°56' E 032°01'0 0.0
2015-Mar-02 15:32N 46°56' E 032°01'0 0.0
2015-Mar-02 14:32N 46°56' E 032°01'0 0.0
2015-Mar-02 13:32N 46°56' E 032°01'0 0.0
2015-Mar-02 12:32N 46°56' E 032°01'0 0.0
2015-Mar-02 11:32N 46°56' E 032°01'0 0.0
2015-Mar-02 10:32N 46°56' E 032°01'0 0.0
2015-Mar-02 09:32N 46°56' E 032°01'0 0.0
2015-Mar-02 08:33N 46°56' E 032°01'0 0.0
2015-Mar-02 07:33N 46°56' E 032°01'0 0.0
2015-Mar-02 06:33N 46°56' E 032°01'0 0.0
2015-Mar-02 05:33N 46°56' E 032°01'0 0.0
2015-Mar-02 04:33N 46°56' E 032°01'0 0.0
2015-Mar-02 03:33N 46°56' E 032°01'0 0.0
2015-Mar-02 02:31N 46°56' E 032°01'0 0.0
2015-Mar-02 01:31N 46°56' E 032°01'0 0.0
2015-Mar-02 00:31N 46°56' E 032°01'0 0.0
2015-Mar-01 23:31N 46°56' E 032°01'0 0.0
2015-Mar-01 22:31N 46°56' E 032°01'0 0.0
2015-Mar-01 21:32N 46°56' E 032°01'0 0.0
2015-Mar-01 20:32N 46°56' E 032°01'0 0.0
2015-Mar-01 19:32N 46°56' E 032°01'0 0.0
2015-Mar-01 18:32N 46°56' E 032°01'0 0.0
2015-Mar-01 17:32N 46°56' E 032°01'0 0.0
2015-Mar-01 16:32N 46°56' E 032°01'0 0.0
2015-Mar-01 15:29N 46°56' E 032°01'0 0.0
2015-Mar-01 14:32N 46°56' E 032°01'0 0.0
2015-Mar-01 13:29N 46°56' E 032°01'0 0.0
2015-Mar-01 12:32N 46°56' E 032°01'0 0.0
2015-Mar-01 11:32N 46°56' E 032°01'0 0.0
2015-Mar-01 10:32N 46°56' E 032°01'0 0.0
2015-Mar-01 09:32N 46°56' E 032°01'0 0.0
2015-Mar-01 08:32N 46°56' E 032°01'0 0.0
2015-Mar-01 07:32N 46°56' E 032°01'1 0.8
2015-Mar-01 06:34N 46°57' E 032°00'0 0.2
2015-Mar-01 05:33N 46°56' E 031°60'0 0.1
2015-Mar-01 04:32N 46°56' E 031°60'0 0.0
2015-Mar-01 03:32N 46°56' E 031°60'0 0.0
2015-Mar-01 02:32N 46°56' E 031°60'0 0.0
2015-Mar-01 01:32N 46°56' E 031°60'0 0.0
2015-Mar-01 00:32N 46°56' E 031°60'0 0.0
2015-Feb-28 23:29N 46°56' E 031°60'0 0.0
2015-Feb-28 22:32N 46°56' E 031°60'0 0.0
2015-Feb-28 21:32N 46°56' E 031°60'0 0.0
2015-Feb-28 20:32N 46°56' E 031°60'0 0.0
2015-Feb-28 19:32N 46°56' E 031°60'0 0.0
2015-Feb-28 18:32N 46°56' E 031°60'0 0.0
2015-Feb-28 17:32N 46°56' E 031°60'0 0.0
2015-Feb-28 16:32N 46°56' E 031°60'0 0.0
2015-Feb-28 15:32N 46°56' E 031°60'0 0.0
2015-Feb-28 14:32N 46°56' E 031°60'0 0.0
2015-Feb-28 13:32N 46°56' E 031°60'0 0.0
2015-Feb-28 12:32N 46°56' E 031°60'0 0.0
2015-Feb-28 11:29N 46°56' E 031°60'0 0.0
2015-Feb-28 10:32N 46°56' E 031°60'0 0.0
2015-Feb-28 09:32N 46°56' E 031°60'0 0.0
2015-Feb-28 08:32N 46°56' E 031°60'0 0.0
2015-Feb-28 07:32N 46°56' E 031°60'0 0.0
2015-Feb-28 06:32N 46°56' E 031°60'0 0.0
2015-Feb-28 05:32N 46°56' E 031°60'0 0.0
2015-Feb-28 04:32N 46°56' E 031°60'0 0.0
2015-Feb-28 03:32N 46°56' E 031°60'0 0.0
2015-Feb-28 02:32N 46°56' E 031°60'0 0.0
2015-Feb-28 01:32N 46°56' E 031°60'0 0.0
2015-Feb-28 00:32N 46°56' E 031°60'0 0.0
2015-Feb-27 23:32N 46°56' E 031°60'0 0.0
2015-Feb-27 22:32N 46°56' E 031°60'0 0.0
2015-Feb-27 21:32N 46°56' E 031°60'0 0.1
2015-Feb-27 20:32N 46°56' E 031°60'0 0.0
2015-Feb-27 19:32N 46°56' E 031°60'0 0.1
2015-Feb-27 18:32N 46°56' E 031°60'5 5.0
2015-Feb-27 17:33N 46°52' E 031°58'1111.1
2015-Feb-27 16:33N 46°41' E 031°56'1211.8
2015-Feb-27 15:31N 46°36' E 031°40'  
2015-Feb-24 13:25N 41°18' E 029°06'17 9.4
2015-Feb-24 11:33N 41°01' E 028°60'6 5.9
2015-Feb-24 10:31N 40°56' E 028°55'2 1.7
2015-Feb-24 09:22N 40°57' E 028°54'0 0.0
2015-Feb-24 07:22N 40°57' E 028°54'0 0.0
2015-Feb-24 06:28N 40°57' E 028°54'0 0.0
2015-Feb-24 05:22N 40°57' E 028°54'0 0.0
2015-Feb-24 04:28N 40°57' E 028°54'0 0.0
2015-Feb-24 03:22N 40°57' E 028°54'0 0.0
2015-Feb-24 02:28N 40°57' E 028°54'0 0.0
2015-Feb-24 01:10N 40°57' E 028°54'0 0.0
2015-Feb-24 00:22N 40°57' E 028°54'0 0.0
2015-Feb-23 23:28N 40°57' E 028°54'0 0.0
2015-Feb-23 22:10N 40°57' E 028°54'0 0.0
2015-Feb-23 21:04N 40°57' E 028°54'0 0.0
2015-Feb-23 19:30N 40°57' E 028°54'0 0.0
2015-Feb-23 18:18N 40°57' E 028°54'0 0.0
2015-Feb-23 17:30N 40°57' E 028°54'0 0.0
2015-Feb-23 16:24N 40°57' E 028°54'0 0.0
2015-Feb-23 14:24N 40°57' E 028°54'0 0.0
2015-Feb-23 13:12N 40°57' E 028°54'0 0.0
2015-Feb-23 11:30N 40°57' E 028°54'0 0.0
2015-Feb-23 08:24N 40°57' E 028°54'0 0.0
2015-Feb-23 07:24N 40°57' E 028°54'  

Dump ship's entire track history